createdAt,value
2023-02-02T00:02:19.815Z,98241.77
2023-02-02T00:04:46.929Z,98241.38
2023-02-02T00:07:13.704Z,98239.45
2023-02-02T00:09:41.349Z,98241.77
2023-02-02T00:12:09.625Z,98236.73
2023-02-02T00:14:36.302Z,98238.14
2023-02-02T00:17:04.221Z,98236.88
2023-02-02T00:19:32.667Z,98236.73
2023-02-02T00:21:59.308Z,98234.35
2023-02-02T00:24:26.048Z,98235.41
2023-02-02T00:26:55.349Z,98243.55
2023-02-02T00:29:27.054Z,98249.11
2023-02-02T00:31:53.761Z,98245.52
2023-02-02T00:34:20.575Z,98247.39
2023-02-02T00:36:47.581Z,98243.81
2023-02-02T00:39:16.479Z,98243.60
2023-02-02T00:41:43.084Z,98249.02
2023-02-02T00:44:28.574Z,98252.50
2023-02-02T00:46:55.374Z,98246.31
2023-02-02T00:49:22.644Z,98246.80
2023-02-02T00:51:50.266Z,98250.10
2023-02-02T00:54:16.916Z,98248.19
2023-02-02T00:56:44.208Z,98244.55
2023-02-02T00:59:11.636Z,98242.34
2023-02-02T01:01:38.438Z,98246.67
2023-02-02T01:04:05.735Z,98243.28
2023-02-02T01:06:32.401Z,98244.38
2023-02-02T01:08:59.007Z,98248.73
2023-02-02T01:11:25.896Z,98247.23
2023-02-02T01:13:53.421Z,98249.14
2023-02-02T01:16:22.538Z,98254.58
2023-02-02T01:18:50.197Z,98255.20
2023-02-02T01:21:16.956Z,98257.70
2023-02-02T01:23:43.598Z,98258.69
2023-02-02T01:26:11.214Z,98259.39
2023-02-02T01:28:37.932Z,98265.37
2023-02-02T01:31:15.329Z,98260.45
2023-02-02T01:33:42.365Z,98261.77
2023-02-02T01:36:12.234Z,98255.96
2023-02-02T01:38:39.350Z,98257.58
2023-02-02T01:41:06.098Z,98262.09
2023-02-02T01:43:46.025Z,98260.79
2023-02-02T01:46:19.853Z,98258.86
2023-02-02T01:48:58.609Z,98260.02
2023-02-02T01:51:49.409Z,98261.36
2023-02-02T01:54:20.130Z,98259.77
2023-02-02T01:56:59.053Z,98262.67
2023-02-02T01:59:25.744Z,98253.98
2023-02-02T02:01:52.325Z,98257.53
2023-02-02T02:04:18.975Z,98254.10
2023-02-02T02:06:45.665Z,98257.33
2023-02-02T02:09:12.598Z,98257.06
2023-02-02T02:11:39.237Z,98255.00
2023-02-02T02:14:26.890Z,98247.77
2023-02-02T02:17:27.313Z,98253.46
2023-02-02T02:20:46.527Z,98252.09
2023-02-02T02:23:52.309Z,98253.98
2023-02-02T02:26:44.201Z,98251.64
2023-02-02T02:29:41.892Z,98253.69
2023-02-02T02:32:50.440Z,98251.69
2023-02-02T02:35:29.433Z,98254.76
2023-02-02T02:38:27.590Z,98253.40
2023-02-02T02:40:56.312Z,98257.45
2023-02-02T02:43:41.166Z,98252.50
2023-02-02T02:46:09.005Z,98250.95
2023-02-02T02:49:01.645Z,98251.27
2023-02-02T02:51:46.562Z,98252.66
2023-02-02T02:54:19.512Z,98247.52
2023-02-02T02:56:55.721Z,98249.00
2023-02-02T02:59:45.133Z,98246.76
2023-02-02T03:02:37.861Z,98246.25
2023-02-02T03:05:27.648Z,98248.76
2023-02-02T03:08:00.333Z,98248.52
2023-02-02T03:10:28.475Z,98244.18
2023-02-02T03:12:55.145Z,98249.64
2023-02-02T03:15:22.458Z,98251.88
2023-02-02T03:17:50.951Z,98251.71
2023-02-02T03:20:17.884Z,98250.31
2023-02-02T03:22:44.593Z,98251.87
2023-02-02T03:25:11.745Z,98256.92
2023-02-02T03:27:39.069Z,98252.94
2023-02-02T03:30:10.259Z,98250.34
2023-02-02T03:32:37.388Z,98250.46
2023-02-02T03:35:04.027Z,98250.58
2023-02-02T03:37:30.947Z,98251.73
2023-02-02T03:39:57.561Z,98248.59
2023-02-02T03:42:24.239Z,98247.22
2023-02-02T03:44:50.825Z,98250.33
2023-02-02T03:47:17.443Z,98248.39
2023-02-02T03:49:44.029Z,98246.56
2023-02-02T03:52:10.629Z,98243.79
2023-02-02T03:54:37.289Z,98245.20
2023-02-02T03:57:04.033Z,98244.28
2023-02-02T03:59:30.658Z,98249.30
2023-02-02T04:01:57.408Z,98246.48
2023-02-02T04:04:24.177Z,98238.52
2023-02-02T04:06:50.795Z,98237.07
2023-02-02T04:09:17.493Z,98231.56
2023-02-02T04:11:44.125Z,98232.50
2023-02-02T04:14:10.855Z,98230.22
2023-02-02T04:16:37.856Z,98229.14
2023-02-02T04:19:04.761Z,98225.98
2023-02-02T04:21:31.438Z,98219.48
2023-02-02T04:23:58.082Z,98220.83
2023-02-02T04:26:26.299Z,98218.00
2023-02-02T04:28:53.542Z,98213.33
2023-02-02T04:31:20.150Z,98206.22
2023-02-02T04:33:46.783Z,98205.33
2023-02-02T04:36:13.508Z,98203.23
2023-02-02T04:38:40.143Z,98204.82
2023-02-02T04:41:08.178Z,98198.77
2023-02-02T04:43:37.933Z,98201.67
2023-02-02T04:46:04.631Z,98192.02
2023-02-02T04:48:31.445Z,98186.38
2023-02-02T04:51:01.910Z,98188.83
2023-02-02T04:53:29.768Z,98182.48
2023-02-02T04:55:56.421Z,98184.87
2023-02-02T04:58:23.086Z,98178.35
2023-02-02T05:00:49.745Z,98176.38
2023-02-02T05:03:16.407Z,98170.79
2023-02-02T05:05:43.041Z,98169.41
2023-02-02T05:08:12.069Z,98170.31
2023-02-02T05:10:42.142Z,98164.29
2023-02-02T05:13:09.477Z,98166.55
2023-02-02T05:15:36.218Z,98162.02
2023-02-02T05:18:02.785Z,98157.05
2023-02-02T05:20:29.407Z,98150.43
2023-02-02T05:22:56.039Z,98153.14
2023-02-02T05:25:22.900Z,98148.52
2023-02-02T05:27:49.617Z,98149.05
2023-02-02T05:30:17.176Z,98145.90
2023-02-02T05:32:43.786Z,98143.35
2023-02-02T05:35:10.543Z,98143.47
2023-02-02T05:37:37.203Z,98145.72
2023-02-02T05:40:04.338Z,98142.99
2023-02-02T05:42:30.995Z,98138.80
2023-02-02T05:44:57.595Z,98141.22
2023-02-02T05:47:24.201Z,98140.06
2023-02-02T05:49:50.892Z,98135.59
2023-02-02T05:52:18.675Z,98129.05
2023-02-02T05:54:45.345Z,98123.15
2023-02-02T05:57:12.023Z,98117.84
2023-02-02T05:59:38.660Z,98112.88
2023-02-02T06:02:05.399Z,98110.23
2023-02-02T06:04:32.030Z,98113.42
2023-02-02T06:06:58.770Z,98113.00
2023-02-02T06:09:26.146Z,98114.66
2023-02-02T06:11:52.750Z,98113.10
2023-02-02T06:14:19.369Z,98111.65
2023-02-02T06:16:45.987Z,98109.38
2023-02-02T06:19:12.622Z,98111.05
2023-02-02T06:21:39.473Z,98110.30
2023-02-02T06:24:06.616Z,98112.66
2023-02-02T06:26:33.401Z,98113.17
2023-02-02T06:29:00.112Z,98113.29
2023-02-02T06:31:26.872Z,98109.89
2023-02-02T06:33:55.338Z,98107.84
2023-02-02T06:36:22.323Z,98106.16
2023-02-02T06:38:50.495Z,98100.80
2023-02-02T06:41:17.887Z,98100.25
2023-02-02T06:43:44.662Z,98101.57
2023-02-02T06:46:11.302Z,98093.80
2023-02-02T06:48:37.991Z,98094.01
2023-02-02T06:51:05.634Z,98090.17
2023-02-02T06:53:32.580Z,98090.02
2023-02-02T06:56:01.221Z,98092.88
2023-02-02T06:58:28.046Z,98087.30
2023-02-02T07:00:55.414Z,98090.92
2023-02-02T07:03:22.398Z,98086.80
2023-02-02T07:05:49.425Z,98085.55
2023-02-02T07:08:16.209Z,98083.55
2023-02-02T07:11:13.215Z,98083.20
2023-02-02T07:13:31.131Z,98081.84
2023-02-02T07:15:58.388Z,98085.23
2023-02-02T07:18:25.125Z,98086.09
2023-02-02T07:20:51.742Z,98085.66
2023-02-02T07:23:18.416Z,98090.11
2023-02-02T07:25:45.124Z,98087.41
2023-02-02T07:28:11.734Z,98088.84
2023-02-02T07:30:38.415Z,98088.59
2023-02-02T07:33:05.091Z,98091.60
2023-02-02T07:35:31.723Z,98094.54
2023-02-02T07:37:58.446Z,98095.02
2023-02-02T07:40:25.157Z,98094.60
2023-02-02T07:42:51.891Z,98097.11
2023-02-02T07:45:36.221Z,98103.48
2023-02-02T07:48:03.141Z,98103.77
2023-02-02T07:50:30.737Z,98109.98
2023-02-02T07:52:59.089Z,98111.53
2023-02-02T07:55:25.720Z,98113.17
2023-02-02T07:57:54.346Z,98118.96
2023-02-02T08:00:21.676Z,98115.86
2023-02-02T08:02:49.455Z,98121.73
2023-02-02T08:05:16.494Z,98124.45
2023-02-02T08:07:44.732Z,98126.95
2023-02-02T08:10:11.670Z,98124.15
2023-02-02T08:12:38.367Z,98131.63
2023-02-02T08:15:05.392Z,98132.61
2023-02-02T08:17:32.008Z,98133.50
2023-02-02T08:19:58.579Z,98136.25
2023-02-02T08:22:25.197Z,98135.80
2023-02-02T08:24:51.820Z,98140.36
2023-02-02T08:27:18.446Z,98143.81
2023-02-02T08:29:46.069Z,98141.11
2023-02-02T08:32:12.737Z,98150.98
2023-02-02T08:34:40.977Z,98154.63
2023-02-02T08:37:07.719Z,98165.37
2023-02-02T08:39:34.429Z,98171.04
2023-02-02T08:42:01.028Z,98176.16
2023-02-02T08:44:44.143Z,98184.24
2023-02-02T08:47:14.282Z,98192.02
2023-02-02T08:49:42.525Z,98195.97
2023-02-02T08:52:09.457Z,98206.96
2023-02-02T08:54:36.074Z,98210.14
2023-02-02T08:57:02.784Z,98220.61
2023-02-02T08:59:29.361Z,98224.00
2023-02-02T09:01:56.705Z,98227.84
2023-02-02T09:04:23.457Z,98233.31
2023-02-02T09:06:50.045Z,98237.87
2023-02-02T09:09:17.484Z,98246.66
2023-02-02T09:11:44.669Z,98255.05
2023-02-02T09:14:12.033Z,98258.67
2023-02-02T09:16:38.796Z,98260.13
2023-02-02T09:19:05.744Z,98266.03
2023-02-02T09:21:37.074Z,98268.34
2023-02-02T09:24:11.848Z,98274.82
2023-02-02T09:26:40.339Z,98274.10
2023-02-02T09:29:08.569Z,98282.43
2023-02-02T09:31:36.658Z,98288.11
2023-02-02T09:34:08.345Z,98293.27
2023-02-02T09:36:35.147Z,98298.31
2023-02-02T09:39:01.745Z,98306.92
2023-02-02T09:41:37.297Z,98309.73
2023-02-02T09:44:41.514Z,98320.87
2023-02-02T09:47:20.283Z,98323.91
2023-02-02T09:50:06.468Z,98329.89
2023-02-02T09:52:41.623Z,98338.51
2023-02-02T09:55:30.303Z,98347.73
2023-02-02T09:58:05.185Z,98350.77
2023-02-02T10:00:33.287Z,98354.64
2023-02-02T10:03:03.024Z,98357.72
2023-02-02T10:05:36.458Z,98364.85
2023-02-02T10:08:03.244Z,98370.69
2023-02-02T10:10:33.815Z,98371.10
2023-02-02T10:13:07.365Z,98376.02
2023-02-02T10:15:42.093Z,98382.62
2023-02-02T10:18:18.490Z,98385.60
2023-02-02T10:20:57.569Z,98395.64
2023-02-02T10:23:44.503Z,98395.02
2023-02-02T10:26:21.360Z,98395.55
2023-02-02T10:29:15.414Z,98400.79
2023-02-02T10:31:50.655Z,98404.02
2023-02-02T10:34:18.470Z,98412.90
2023-02-02T10:37:11.833Z,98418.34
2023-02-02T10:40:03.948Z,98422.31
2023-02-02T10:42:30.581Z,98430.79
2023-02-02T10:44:59.290Z,98431.16
2023-02-02T10:47:28.157Z,98439.27
2023-02-02T10:50:13.026Z,98441.84
2023-02-02T10:52:54.687Z,98447.50
2023-02-02T10:55:29.167Z,98452.34
2023-02-02T10:57:58.782Z,98459.05
2023-02-02T11:00:30.718Z,98462.08
2023-02-02T11:02:59.001Z,98459.81
2023-02-02T11:05:46.522Z,98466.19
2023-02-02T11:08:19.019Z,98471.98
2023-02-02T11:10:47.690Z,98468.98
2023-02-02T11:13:25.266Z,98469.56
2023-02-02T11:15:52.313Z,98478.23
2023-02-02T11:18:28.284Z,98480.19
2023-02-02T11:20:54.908Z,98481.52
2023-02-02T11:23:21.610Z,98482.85
2023-02-02T11:25:57.763Z,98484.86
2023-02-02T11:28:25.171Z,98486.95
2023-02-02T11:30:52.615Z,98492.52
2023-02-02T11:33:33.808Z,98493.96
2023-02-02T11:36:19.212Z,98498.04
2023-02-02T11:38:45.966Z,98501.90
2023-02-02T11:41:15.134Z,98509.01
2023-02-02T11:43:51.011Z,98523.88
2023-02-02T11:46:24.732Z,98529.27
2023-02-02T11:49:08.498Z,98536.80
2023-02-02T11:51:35.177Z,98545.02
2023-02-02T11:54:05.189Z,98553.98
2023-02-02T11:56:32.019Z,98556.33
2023-02-02T11:59:00.981Z,98569.65
2023-02-02T12:01:29.396Z,98572.77
2023-02-02T12:03:57.746Z,98579.36
2023-02-02T12:06:34.823Z,98580.02
2023-02-02T12:09:02.667Z,98584.71
2023-02-02T12:11:32.332Z,98589.02
2023-02-02T12:14:07.022Z,98596.89
2023-02-02T12:16:43.350Z,98599.44
2023-02-02T12:19:36.693Z,98604.61
2023-02-02T12:22:18.082Z,98615.08
2023-02-02T12:24:49.327Z,98616.56
2023-02-02T12:27:49.947Z,98616.33
2023-02-02T12:30:42.403Z,98623.95
2023-02-02T12:33:24.234Z,98624.89
2023-02-02T12:36:06.551Z,98628.36
2023-02-02T12:38:39.234Z,98637.06
2023-02-02T12:41:11.564Z,98641.00
2023-02-02T12:43:40.175Z,98647.85
2023-02-02T12:46:26.777Z,98650.84
2023-02-02T12:49:12.071Z,98655.25
2023-02-02T12:52:01.722Z,98661.99
2023-02-02T12:54:46.073Z,98666.88
2023-02-02T12:57:38.817Z,98672.77
2023-02-02T13:00:53.551Z,98685.72
2023-02-02T13:03:43.001Z,98687.99
2023-02-02T13:09:33.362Z,98708.58
2023-02-02T13:12:03.721Z,98709.16
2023-02-02T13:14:38.795Z,98719.31
2023-02-02T13:17:10.083Z,98734.16
2023-02-02T13:19:42.171Z,98746.00
2023-02-02T13:22:26.667Z,98752.67
2023-02-02T13:24:54.818Z,98753.86
2023-02-02T13:27:21.562Z,98760.93
2023-02-02T13:29:50.529Z,98760.80
2023-02-02T13:32:32.075Z,98761.45
2023-02-02T13:35:01.410Z,98765.89
2023-02-02T13:37:53.557Z,98772.79
2023-02-02T13:40:40.191Z,98773.49
2023-02-02T13:43:29.398Z,98783.98
2023-02-02T13:46:05.372Z,98790.48
2023-02-02T13:48:52.737Z,98799.23
2023-02-02T13:51:45.268Z,98808.67
2023-02-02T13:54:17.706Z,98812.31
2023-02-02T13:56:44.334Z,98818.73
2023-02-02T13:59:42.993Z,98826.71
2023-02-02T14:02:20.909Z,98835.73
2023-02-02T14:04:54.716Z,98836.09
2023-02-02T14:07:27.325Z,98843.60
2023-02-02T14:09:53.887Z,98849.44
2023-02-02T14:12:30.563Z,98852.35
2023-02-02T14:14:57.351Z,98856.10
2023-02-02T14:17:23.950Z,98857.67
2023-02-02T14:19:54.953Z,98857.49
2023-02-02T14:22:52.482Z,98862.11
2023-02-02T14:25:36.910Z,98870.04
2023-02-02T14:28:05.125Z,98878.41
2023-02-02T14:30:35.924Z,98880.01
2023-02-02T14:33:21.155Z,98887.77
2023-02-02T14:35:47.762Z,98893.63
2023-02-02T14:38:19.681Z,98896.52
2023-02-02T14:40:59.198Z,98907.46
2023-02-02T14:43:55.058Z,98911.38
2023-02-02T14:46:32.878Z,98927.09
2023-02-02T14:49:02.597Z,98941.77
2023-02-02T14:51:31.215Z,98944.66
2023-02-02T14:54:02.934Z,98944.80
2023-02-02T14:56:40.626Z,98954.30
2023-02-02T14:59:10.124Z,98956.25
2023-02-02T15:01:36.917Z,98957.70
2023-02-02T15:04:23.971Z,98959.14
2023-02-02T15:06:52.825Z,98964.56
2023-02-02T15:09:23.484Z,98967.10
2023-02-02T15:12:01.209Z,98973.85
2023-02-02T15:14:43.680Z,98980.79
2023-02-02T15:17:22.495Z,98989.17
2023-02-02T15:19:53.732Z,98991.01
2023-02-02T15:22:26.843Z,98996.11
2023-02-02T15:24:54.628Z,99000.95
2023-02-02T15:27:21.221Z,99007.67
2023-02-02T15:29:49.779Z,99010.61
2023-02-02T15:32:22.674Z,99015.57
2023-02-02T15:34:51.311Z,99017.65
2023-02-02T15:37:23.809Z,99025.23
2023-02-02T15:39:56.356Z,99038.42
2023-02-02T15:42:44.300Z,99044.60
2023-02-02T15:45:31.994Z,99050.73
2023-02-02T15:47:59.121Z,99059.58
2023-02-02T15:50:26.604Z,99064.67
2023-02-02T15:52:53.980Z,99067.14
2023-02-02T15:55:32.399Z,99074.19
2023-02-02T15:57:59.223Z,99074.61
2023-02-02T16:00:33.800Z,99081.12
2023-02-02T16:03:02.257Z,99090.84
2023-02-02T16:05:31.733Z,99098.22
2023-02-02T16:08:05.749Z,99104.93
2023-02-02T16:10:33.490Z,99113.08
2023-02-02T16:13:00.081Z,99121.98
2023-02-02T16:15:28.425Z,99128.73
2023-02-02T16:18:02.780Z,99134.33
2023-02-02T16:20:31.567Z,99140.23
2023-02-02T16:23:06.225Z,99146.82
2023-02-02T16:25:34.717Z,99156.94
2023-02-02T16:28:01.420Z,99163.24
2023-02-02T16:30:32.688Z,99167.40
2023-02-02T16:32:59.405Z,99169.60
2023-02-02T16:35:34.495Z,99176.37
2023-02-02T16:38:30.269Z,99181.85
2023-02-02T16:41:06.892Z,99191.24
2023-02-02T16:43:33.827Z,99197.17
2023-02-02T16:46:08.751Z,99197.91
2023-02-02T16:48:37.537Z,99212.30
2023-02-02T16:51:10.159Z,99219.55
2023-02-02T16:53:36.863Z,99221.88
2023-02-02T16:56:05.129Z,99227.56
2023-02-02T16:58:31.869Z,99231.30
2023-02-02T17:01:13.894Z,99233.11
2023-02-02T17:03:49.200Z,99238.36
2023-02-02T17:06:16.147Z,99240.41
2023-02-02T17:08:42.743Z,99243.85
2023-02-02T17:11:18.949Z,99250.32
2023-02-02T17:13:45.552Z,99254.48
2023-02-02T17:16:13.918Z,99266.92
2023-02-02T17:18:40.644Z,99273.05
2023-02-02T17:21:07.783Z,99278.61
2023-02-02T17:23:36.311Z,99288.00
2023-02-02T17:26:02.897Z,99293.73
2023-02-02T17:28:30.092Z,99296.77
2023-02-02T17:30:58.515Z,99301.75
2023-02-02T17:33:25.329Z,99310.30
2023-02-02T17:35:55.588Z,99311.92
2023-02-02T17:38:23.502Z,99320.08
2023-02-02T17:40:50.030Z,99318.30
2023-02-02T17:43:16.647Z,99330.88
2023-02-02T17:45:43.273Z,99333.12
2023-02-02T17:48:11.689Z,99334.95
2023-02-02T17:50:38.477Z,99346.51
2023-02-02T17:53:05.099Z,99348.84
2023-02-02T17:55:42.189Z,99358.44
2023-02-02T17:58:33.855Z,99363.00
2023-02-02T18:01:01.157Z,99365.70
2023-02-02T18:03:34.400Z,99375.41
2023-02-02T18:06:01.935Z,99376.34
2023-02-02T18:08:28.896Z,99379.75
2023-02-02T18:10:55.533Z,99386.37
2023-02-02T18:13:22.701Z,99391.39
2023-02-02T18:15:49.542Z,99398.09
2023-02-02T18:18:16.313Z,99400.29
2023-02-02T18:20:43.700Z,99398.88
2023-02-02T18:23:10.414Z,99405.95
2023-02-02T18:25:37.745Z,99413.20
2023-02-02T18:28:04.439Z,99420.34
2023-02-02T18:30:31.116Z,99431.39
2023-02-02T18:32:57.902Z,99437.40
2023-02-02T18:35:25.655Z,99441.98
2023-02-02T18:37:52.493Z,99450.54
2023-02-02T18:40:19.519Z,99450.77
2023-02-02T18:42:46.795Z,99462.35
2023-02-02T18:45:13.416Z,99465.38
2023-02-02T18:47:41.397Z,99469.30
2023-02-02T18:50:08.839Z,99479.02
2023-02-02T18:52:35.511Z,99474.39
2023-02-02T18:55:02.138Z,99478.94
2023-02-02T18:57:31.886Z,99482.67
2023-02-02T18:59:58.512Z,99490.24
2023-02-02T19:02:25.941Z,99496.05
2023-02-02T19:05:11.555Z,99498.36
2023-02-02T19:07:56.589Z,99500.13
2023-02-02T19:10:24.770Z,99509.55
2023-02-02T19:12:58.144Z,99519.40
2023-02-02T19:15:26.851Z,99530.00
2023-02-02T19:17:54.912Z,99530.67
2023-02-02T19:20:23.849Z,99537.89
2023-02-02T19:22:52.467Z,99543.90
2023-02-02T19:25:19.134Z,99549.22
2023-02-02T19:27:45.755Z,99557.05
2023-02-02T19:30:19.243Z,99560.85
2023-02-02T19:32:45.975Z,99564.11
2023-02-02T19:35:18.410Z,99571.27
2023-02-02T19:37:47.222Z,99574.71
2023-02-02T19:40:23.574Z,99576.92
2023-02-02T19:42:56.438Z,99577.23
2023-02-02T19:45:27.157Z,99582.61
2023-02-02T19:47:55.929Z,99584.83
2023-02-02T19:50:25.842Z,99594.33
2023-02-02T19:52:53.595Z,99592.33
2023-02-02T19:55:25.827Z,99600.18
2023-02-02T19:57:53.326Z,99607.75
2023-02-02T20:00:25.531Z,99612.24
2023-02-02T20:02:55.433Z,99612.08
2023-02-02T20:05:23.775Z,99614.01
2023-02-02T20:07:59.456Z,99616.73
2023-02-02T20:10:36.428Z,99617.48
2023-02-02T20:13:12.300Z,99620.94
2023-02-02T20:15:39.424Z,99624.70
2023-02-02T20:18:14.451Z,99626.19
2023-02-02T20:20:43.397Z,99627.54
2023-02-02T20:23:32.358Z,99630.69
2023-02-02T20:25:59.777Z,99641.04
2023-02-02T20:28:34.239Z,99644.01
2023-02-02T20:31:04.803Z,99649.52
2023-02-02T20:33:32.998Z,99647.62
2023-02-02T20:36:01.197Z,99655.18
2023-02-02T20:38:29.848Z,99656.52
2023-02-02T20:40:56.674Z,99664.84
2023-02-02T20:43:23.285Z,99672.98
2023-02-02T20:45:50.234Z,99682.78
2023-02-02T20:48:17.028Z,99690.80
2023-02-02T20:50:43.753Z,99696.48
2023-02-02T20:53:10.961Z,99703.36
2023-02-02T20:55:37.674Z,99704.90
2023-02-02T20:58:04.410Z,99710.75
2023-02-02T21:00:31.189Z,99715.01
2023-02-02T21:02:58.059Z,99715.80
2023-02-02T21:05:25.048Z,99721.98
2023-02-02T21:07:54.864Z,99726.80
2023-02-02T21:10:22.749Z,99738.21
2023-02-02T21:12:51.836Z,99741.74
2023-02-02T21:15:19.315Z,99741.54
2023-02-02T21:17:45.840Z,99740.79
2023-02-02T21:20:13.325Z,99743.29
2023-02-02T21:22:39.982Z,99745.65
2023-02-02T21:25:07.107Z,99750.80
2023-02-02T21:27:34.496Z,99756.11
2023-02-02T21:30:01.202Z,99758.05
2023-02-02T21:32:27.923Z,99762.75
2023-02-02T21:34:54.593Z,99772.25
2023-02-02T21:37:21.160Z,99772.30
2023-02-02T21:39:51.803Z,99777.02
2023-02-02T21:42:22.628Z,99783.93
2023-02-02T21:44:53.736Z,99781.70
2023-02-02T21:47:29.801Z,99783.72
2023-02-02T21:49:57.782Z,99791.24
2023-02-02T21:52:24.466Z,99791.58
2023-02-02T21:54:51.145Z,99800.67
2023-02-02T21:57:19.442Z,99810.35
2023-02-02T21:59:49.035Z,99822.37
2023-02-02T22:02:33.954Z,99824.66
2023-02-02T22:05:01.510Z,99823.30
2023-02-02T22:07:28.161Z,99829.01
2023-02-02T22:09:54.937Z,99827.36
2023-02-02T22:12:25.035Z,99829.64
2023-02-02T22:14:52.614Z,99826.07
2023-02-02T22:17:23.883Z,99825.21
2023-02-02T22:19:53.168Z,99825.17
2023-02-02T22:22:26.196Z,99824.16
2023-02-02T22:25:01.754Z,99825.09
2023-02-02T22:27:40.679Z,99820.09
2023-02-02T22:30:30.469Z,99826.46
2023-02-02T22:32:57.310Z,99828.83
2023-02-02T22:35:24.010Z,99832.70
2023-02-02T22:37:51.591Z,99834.42
2023-02-02T22:40:22.551Z,99836.56
2023-02-02T22:42:54.889Z,99841.38
2023-02-02T22:45:21.762Z,99831.73
2023-02-02T22:47:48.568Z,99831.52
2023-02-02T22:50:16.539Z,99839.80
2023-02-02T22:52:43.191Z,99839.67
2023-02-02T22:55:10.193Z,99847.23
2023-02-02T22:57:36.926Z,99855.00
2023-02-02T23:00:12.811Z,99858.56
2023-02-02T23:02:40.155Z,99865.83
2023-02-02T23:05:07.739Z,99871.58
2023-02-02T23:07:34.399Z,99869.73
2023-02-02T23:10:01.143Z,99869.33
2023-02-02T23:12:28.396Z,99871.94
2023-02-02T23:14:55.014Z,99867.69
2023-02-02T23:17:21.660Z,99864.34
2023-02-02T23:19:48.308Z,99863.06
2023-02-02T23:22:14.916Z,99864.51
2023-02-02T23:24:41.525Z,99864.52
2023-02-02T23:27:08.117Z,99864.86
2023-02-02T23:29:34.701Z,99864.23
2023-02-02T23:32:01.949Z,99864.11
2023-02-02T23:34:28.607Z,99870.02
2023-02-02T23:36:55.207Z,99871.11
2023-02-02T23:39:21.817Z,99880.11
2023-02-02T23:41:48.369Z,99880.81
2023-02-02T23:44:15.290Z,99886.14
2023-02-02T23:46:41.965Z,99884.97
2023-02-02T23:49:08.665Z,99883.70
2023-02-02T23:51:35.281Z,99884.83
2023-02-02T23:54:01.925Z,99882.80
2023-02-02T23:56:28.577Z,99883.87
2023-02-02T23:58:55.197Z,99885.21
